Details From KPGD - Punta Gorda
To KEYW - Key West Intl
Flight Number -
Tags generated
Created
Modified
Stats Distance 143 nm / 265 km
Max Altitude 17,200 ft / 5,243 m
Waypoints 5
Social Downloads 0
Likes 0
Share VATSIM

Download

Looking for another format? Having issues loading an existing format? Contact us
Advertisement - Login to hide

Notes

Basic altitude profile: - Ascent Rate: 600ft/min - Ascent Speed: 250kts - Cruise Altitude: 8000ft - Cruise Speed: 420kts - Descent Rate: 500ft/min - Descent Speed: 250kts Options: - Use NATs: yes - Use PACOTS: yes - Use low airways: yes - Use high airways: yes

Route

KPGD MARCI V225 STING KEYW

ID Type Via Altitude Latitude Longitude Leg Dist Tot Dist Heading (true) Name
O KPGD APT - 0 ft / 0 m 26.91977˚ -81.99185˚ - 0 nm - Punta Gorda
MARCI FIX - 17,200 ft / 5,243 m 25.89107˚ -81.78399˚ 62 nm 62 nm 170° / 170° -
RIGOR FIX V225 (AWY-LO) 7,300 ft / 2,225 m 25.12269˚ -81.79287˚ 46 nm 108 nm 181° / 181° -
STING FIX V225 (AWY-LO) 4,200 ft / 1,280 m 24.88158˚ -81.79631˚ 14 nm 123 nm 181° / 181° -
O KEYW APT - 0 ft / 0 m 24.55612˚ -81.75955˚ 19 nm 143 nm 174° / 174° Key West Intl

Altitude Profile

Advertisement - Login to hide

KPGD

Details ICAO KPGD (PGD)
Name Punta Gorda
Region United States
Timezone America/New_York (UTC-5.0)
Stats Elevation 24 ft / 7 m (AMSL)
Location 26.919769° -81.991849°
Runways 3
Magnetic Variation 5.746° W

METAR

KPGD 111853Z VRB05KT 10SM CLR 18/04 A3021 RMK AO2 SLP231 T01830044

Decode

TAF

TAF KPGD 111745Z 1118/1218 36006KT P6SM SKC FM112000 33006KT P6SM FEW250 FM120200 VRB03KT P6SM SKC FM121600 27011G18KT P6SM FEW030 SCT250

Decode

Departure Runways

ID Width Length Bearing (true) Bearing (mag) Surface Threshold Offset Overrun Length
04 151 ft / 46 m 7,211 ft / 2,198 m 29.03° 34.78° Asphalt 0 ft / 0 m 0 ft / 0 m
09 59 ft / 18 m 2,638 ft / 804 m 89.20° 94.95° Asphalt 0 ft / 0 m 49 ft / 15 m
15 151 ft / 46 m 5,707 ft / 1,739 m 149.23° 154.98° Asphalt 561 ft / 171 m 0 ft / 0 m
22 151 ft / 46 m 7,211 ft / 2,198 m 209.04° 214.79° Asphalt 0 ft / 0 m 0 ft / 0 m
27 59 ft / 18 m 2,638 ft / 804 m 269.20° 274.95° Asphalt 0 ft / 0 m 0 ft / 0 m
33 151 ft / 46 m 5,707 ft / 1,739 m 329.23° 334.98° Asphalt 0 ft / 0 m 0 ft / 0 m

KEYW

Details ICAO KEYW (EYW)
Name Key West Intl
Region United States
Timezone America/New_York (UTC-5.0)
Stats Elevation 2 ft / 1 m (AMSL)
Location 24.556124° -81.759546°
Runways 1
Magnetic Variation 5.544° W

METAR

KEYW 111853Z 01014G19KT 10SM CLR 19/11 A3018 RMK AO2 SLP219 T01890106

Decode

TAF

KEYW 111128Z 1112/1212 01012G20KT P6SM SKC FM111600 36012KT P6SM SKC FM120200 36005KT P6SM SKC

Decode

Destination Runways

ID Width Length Bearing (true) Bearing (mag) Surface Threshold Offset Overrun Length
09 100 ft / 30 m 4,794 ft / 1,461 m 89.38° 94.92° Asphalt 151 ft / 46 m 0 ft / 0 m
27 100 ft / 30 m 4,794 ft / 1,461 m 269.39° 274.93° Asphalt 151 ft / 46 m 0 ft / 0 m

Popular Alternatives